This is the latest recevied weather packets stored in our database for station/object DM4WH-13. If no packets are shown the sender has not sent any weather packets the latest 10 day(s).
| Time | Temp. | Humidity | Pressure | Rain* | Wind** | Luminosity | Snow |
|---|---|---|---|---|---|---|---|
| 1777656626 | 18.89° C | 39% | 1027.4 hPa | 0 mm | 0 m/s | - | - |
| 1777656313 | 20° C | 38% | 1027.4 hPa | 0 mm | 0 m/s | - | - |
| 1777656026 | 20° C | 38% | 1027.5 hPa | 0 mm | 0 m/s | - | - |
| 1777655713 | 20° C | 37% | 1027.5 hPa | 0 mm | 0.45 m/s, 287° | - | - |
| 1777655426 | 21.11° C | 35% | 1027.5 hPa | 0 mm | 0 m/s | - | - |
| 1777655113 | 22.22° C | 33% | 1027.6 hPa | 0 mm | 0.45 m/s, 287° | - | - |
| 1777654826 | 22.22° C | 32% | 1027.6 hPa | 0 mm | 0 m/s | - | - |
| 1777654513 | 22.22° C | 33% | 1027.6 hPa | 0 mm | 0.45 m/s, 287° | - | - |
| 1777654238 | 22.22° C | 33% | 1027.7 hPa | 0 mm | 0.45 m/s, 270° | - | - |
| 1777653926 | 22.22° C | 33% | 1027.7 hPa | 0 mm | 0.45 m/s, 249° | - | - |
| 1777653613 | 22.22° C | 34% | 1027.7 hPa | 0 mm | 0.45 m/s, 289° | - | - |
| 1777653326 | 22.22° C | 34% | 1027.7 hPa | 0 mm | 0.45 m/s, 299° | - | - |
| 1777653013 | 22.78° C | 33% | 1027.7 hPa | 0 mm | 0.45 m/s, 282° | - | - |
| 1777652713 | 22.22° C | 32% | 1027.8 hPa | 0 mm | 0.45 m/s, 282° | - | - |
| 1777652426 | 21.11° C | 34% | 1027.7 hPa | 0 mm | 0.45 m/s, 306° | - | - |
| 1777652113 | 21.11° C | 35% | 1027.8 hPa | 0 mm | 0.45 m/s, 300° | - | - |
| 1777651825 | 22.22° C | 36% | 1027.8 hPa | 0 mm | 0.89 m/s, 281° | - | - |
| 1777651513 | 22.22° C | 32% | 1027.8 hPa | 0 mm | 0.45 m/s, 336° | - | - |
| 1777651225 | 22.22° C | 33% | 1027.9 hPa | 0 mm | 0.89 m/s, 306° | - | - |
| 1777650913 | 22.78° C | 32% | 1027.9 hPa | 0 mm | 0.45 m/s, 306° | - | - |
| 1777650625 | 22.78° C | 32% | 1028 hPa | 0 mm | 0.45 m/s, 266° | - | - |
| 1777650313 | 22.22° C | 35% | 1028.1 hPa | 0 mm | 0.45 m/s, 66° | - | - |
| 1777650025 | 22.78° C | 34% | 1028 hPa | 0 mm | 0.45 m/s, 63° | - | - |
| 1777649713 | 22.78° C | 34% | 1028.1 hPa | 0 mm | 0.45 m/s, 102° | - | - |
| 1777649425 | 22.78° C | 35% | 1028.2 hPa | 0 mm | 0.45 m/s, 120° | - | - |
* Rain latest hour (hover to see other rain measurements)
** Current wind speed in m/s (hover to see current wind gust speed)